Terminal Aerodrome Forecast
Issued by NWS

Current Version | Previous Version | Text Only | Print | Product List | Glossary On
Versions: 1 2 3 4 5 6 7 8 9 10 11 12 13 14 15 16 17 18 19 20 21 22 23 24 25
000
FTUS41 KCAR 251120
TAFPQI
TAF
KPQI 251120Z 2512/2612 00000KT P6SM SCT030
     FM251300 20005KT P6SM SCT040
     FM251700 22006KT P6SM SCT250=

USA.gov is the U.S. government's official web portal to all federal, state and local government web resources and services.